createdAt,value
2023-04-10T00:00:31.350Z,74.32
2023-04-10T00:03:39.132Z,74.31
2023-04-10T00:06:45.093Z,74.40
2023-04-10T00:09:52.010Z,74.46
2023-04-10T00:12:58.726Z,74.45
2023-04-10T00:16:05.354Z,74.39
2023-04-10T00:19:12.828Z,74.41
2023-04-10T00:22:18.894Z,74.40
2023-04-10T00:25:24.594Z,74.46
2023-04-10T00:28:30.842Z,74.48
2023-04-10T00:31:37.842Z,74.44
2023-04-10T00:34:43.364Z,74.49
2023-04-10T00:37:50.367Z,74.55
2023-04-10T00:40:57.688Z,74.48
2023-04-10T00:44:03.978Z,74.49
2023-04-10T00:47:10.030Z,74.58
2023-04-10T00:50:16.190Z,74.63
2023-04-10T00:53:22.729Z,74.67
2023-04-10T00:56:29.148Z,74.59
2023-04-10T00:59:34.243Z,74.52
2023-04-10T01:02:40.674Z,74.56
2023-04-10T01:05:52.246Z,74.60
2023-04-10T01:09:32.724Z,74.47
2023-04-10T01:13:07.366Z,74.51
2023-04-10T01:16:29.555Z,74.65
2023-04-10T01:19:48.554Z,74.66
2023-04-10T01:23:24.392Z,74.60
2023-04-10T01:26:30.742Z,74.65
2023-04-10T01:29:37.018Z,74.73
2023-04-10T01:32:42.985Z,74.85
2023-04-10T01:35:48.317Z,74.90
2023-04-10T01:38:56.868Z,74.95
2023-04-10T01:42:06.564Z,74.87
2023-04-10T01:45:13.058Z,74.82
2023-04-10T01:48:23.244Z,74.83
2023-04-10T01:51:22.868Z,74.89
2023-04-10T01:54:10.069Z,74.99
2023-04-10T01:57:04.133Z,75.00
2023-04-10T02:00:00.295Z,75.05
2023-04-10T02:03:10.035Z,75.01
2023-04-10T02:07:05.714Z,75.01
2023-04-10T02:10:20.438Z,75.05
2023-04-10T02:13:26.507Z,75.11
2023-04-10T02:16:32.337Z,75.15
2023-04-10T02:19:40.191Z,75.10
2023-04-10T02:22:46.109Z,75.11
2023-04-10T02:25:52.513Z,75.12
2023-04-10T02:28:59.424Z,75.15
2023-04-10T02:32:07.621Z,75.15
2023-04-10T02:35:13.004Z,75.18
2023-04-10T02:38:19.784Z,75.24
2023-04-10T02:41:25.961Z,75.22
2023-04-10T02:44:34.398Z,75.16
2023-04-10T02:47:40.110Z,75.26
2023-04-10T02:50:45.982Z,75.29
2023-04-10T02:53:52.253Z,75.29
2023-04-10T02:57:02.433Z,75.35
2023-04-10T03:00:09.976Z,75.37
2023-04-10T03:03:22.056Z,75.34
2023-04-10T03:06:30.507Z,75.37
2023-04-10T03:09:37.487Z,75.46
2023-04-10T03:12:43.562Z,75.55
2023-04-10T03:15:49.014Z,75.59
2023-04-10T03:18:55.686Z,75.60
2023-04-10T03:22:02.156Z,75.58
2023-04-10T03:25:07.934Z,75.56
2023-04-10T03:28:14.131Z,75.58
2023-04-10T03:31:21.205Z,75.55
2023-04-10T03:34:29.499Z,75.47
2023-04-10T03:37:35.678Z,75.29
2023-04-10T03:40:45.217Z,75.26
2023-04-10T03:43:55.475Z,75.39
2023-04-10T03:47:01.860Z,75.49
2023-04-10T03:50:08.468Z,75.48
2023-04-10T03:53:16.484Z,75.57
2023-04-10T03:56:23.624Z,75.64
2023-04-10T03:59:37.791Z,75.68
2023-04-10T04:02:40.997Z,75.73
2023-04-10T04:05:49.771Z,75.72
2023-04-10T04:09:06.012Z,75.72
2023-04-10T04:12:15.366Z,75.65
2023-04-10T04:15:36.676Z,75.59
2023-04-10T04:19:00.742Z,75.61
2023-04-10T04:22:11.209Z,75.58
2023-04-10T04:25:32.675Z,75.57
2023-04-10T04:28:46.647Z,75.47
2023-04-10T04:31:55.352Z,75.44
2023-04-10T04:35:01.422Z,75.30
2023-04-10T04:38:03.112Z,75.32
2023-04-10T04:40:55.758Z,75.32
2023-04-10T04:44:03.125Z,75.30
2023-04-10T04:46:58.219Z,75.30
2023-04-10T04:50:05.620Z,75.31
2023-04-10T04:53:17.892Z,75.25
2023-04-10T04:56:35.362Z,75.14
2023-04-10T04:59:59.427Z,75.10
2023-04-10T05:03:16.163Z,74.89
2023-04-10T05:06:39.667Z,74.90
2023-04-10T05:09:49.156Z,74.92
2023-04-10T05:13:09.076Z,74.84
2023-04-10T05:16:21.328Z,74.76
2023-04-10T05:19:32.786Z,74.75
2023-04-10T05:22:57.968Z,74.76
2023-04-10T05:26:12.353Z,74.74
2023-04-10T05:29:26.968Z,74.69
2023-04-10T05:32:43.887Z,74.58
2023-04-10T05:36:07.493Z,74.54
2023-04-10T05:39:32.053Z,74.23
2023-04-10T05:42:44.935Z,74.10
2023-04-10T05:46:05.392Z,74.14
2023-04-10T05:49:24.485Z,74.17
2023-04-10T05:52:33.026Z,74.24
2023-04-10T05:55:58.101Z,74.24
2023-04-10T05:59:16.577Z,74.00
2023-04-10T06:02:31.994Z,74.00
2023-04-10T06:05:38.587Z,74.02
2023-04-10T06:08:45.225Z,74.00
2023-04-10T06:11:51.185Z,73.80
2023-04-10T06:14:56.580Z,73.56
2023-04-10T06:18:05.553Z,73.60
2023-04-10T06:21:13.850Z,73.52
2023-04-10T06:24:24.735Z,73.59
2023-04-10T06:27:32.683Z,73.58
2023-04-10T06:30:42.179Z,73.39
2023-04-10T06:33:47.872Z,73.24
2023-04-10T06:36:55.150Z,73.05
2023-04-10T06:40:00.806Z,72.80
2023-04-10T06:43:06.706Z,72.74
2023-04-10T06:46:13.403Z,72.61
2023-04-10T06:49:19.117Z,72.48
2023-04-10T06:52:23.968Z,72.50
2023-04-10T06:55:29.466Z,72.53
2023-04-10T06:58:35.884Z,72.54
2023-04-10T07:01:42.894Z,72.43
2023-04-10T07:04:48.740Z,72.36
2023-04-10T07:07:57.092Z,72.24
2023-04-10T07:11:03.297Z,71.83
2023-04-10T07:14:09.566Z,71.91
2023-04-10T07:17:16.145Z,71.92
2023-04-10T07:20:23.889Z,71.92
2023-04-10T07:23:30.544Z,71.93
2023-04-10T07:26:37.112Z,71.58
2023-04-10T07:29:43.444Z,71.57
2023-04-10T07:32:50.263Z,71.40
2023-04-10T07:35:56.739Z,71.24
2023-04-10T07:39:03.005Z,71.25
2023-04-10T07:42:09.554Z,71.12
2023-04-10T07:45:15.171Z,70.78
2023-04-10T07:48:20.991Z,70.69
2023-04-10T07:51:27.714Z,70.60
2023-04-10T07:54:33.686Z,70.49
2023-04-10T07:57:41.693Z,70.27
2023-04-10T08:00:49.644Z,70.30
2023-04-10T08:03:57.667Z,70.12
2023-04-10T08:07:05.753Z,69.88
2023-04-10T08:10:12.805Z,69.68
2023-04-10T08:13:20.136Z,69.40
2023-04-10T08:16:27.206Z,69.33
2023-04-10T08:19:33.672Z,69.38
2023-04-10T08:22:39.847Z,69.09
2023-04-10T08:25:47.513Z,68.82
2023-04-10T08:28:53.807Z,68.63
2023-04-10T08:32:01.689Z,68.50
2023-04-10T08:35:07.090Z,68.14
2023-04-10T08:38:14.660Z,68.04
2023-04-10T08:41:21.209Z,67.92
2023-04-10T08:44:28.797Z,67.61
2023-04-10T08:47:35.711Z,67.39
2023-04-10T08:50:42.158Z,67.28
2023-04-10T08:53:48.014Z,67.15
2023-04-10T08:56:55.166Z,66.84
2023-04-10T09:00:04.275Z,66.29
2023-04-10T09:03:12.237Z,66.04
2023-04-10T09:06:20.070Z,65.93
2023-04-10T09:09:29.343Z,65.92
2023-04-10T09:12:36.465Z,65.67
2023-04-10T09:15:44.019Z,65.33
2023-04-10T09:19:06.396Z,65.28
2023-04-10T09:22:12.034Z,65.30
2023-04-10T09:25:18.632Z,65.11
2023-04-10T09:28:24.971Z,64.82
2023-04-10T09:31:45.596Z,64.70
2023-04-10T09:34:58.770Z,64.28
2023-04-10T09:38:04.980Z,64.06
2023-04-10T09:41:21.449Z,63.95
2023-04-10T09:44:26.476Z,63.68
2023-04-10T09:47:34.711Z,63.41
2023-04-10T09:50:51.148Z,63.20
2023-04-10T09:54:04.445Z,62.69
2023-04-10T09:57:10.302Z,62.34
2023-04-10T10:00:21.139Z,62.02
2023-04-10T10:03:34.425Z,61.97
2023-04-10T10:06:40.235Z,61.82
2023-04-10T10:09:46.867Z,61.45
2023-04-10T10:13:16.730Z,61.18
2023-04-10T10:16:36.229Z,60.79
2023-04-10T10:20:17.302Z,60.48
2023-04-10T10:23:25.605Z,60.34
2023-04-10T10:26:31.842Z,60.17
2023-04-10T10:29:37.673Z,59.96
2023-04-10T10:32:44.245Z,59.81
2023-04-10T10:35:52.348Z,59.46
2023-04-10T10:39:29.541Z,58.97
2023-04-10T10:43:11.360Z,58.73
2023-04-10T10:46:26.456Z,58.60
2023-04-10T10:49:32.860Z,58.30
2023-04-10T10:53:04.198Z,58.04
2023-04-10T10:56:10.131Z,57.88
2023-04-10T10:59:16.061Z,57.47
2023-04-10T11:02:32.262Z,56.87
2023-04-10T11:06:02.921Z,56.66
2023-04-10T11:09:10.757Z,56.43
2023-04-10T11:12:18.646Z,55.76
2023-04-10T11:15:25.422Z,55.48
2023-04-10T11:18:31.571Z,55.33
2023-04-10T11:21:38.755Z,54.96
2023-04-10T11:24:46.745Z,54.59
2023-04-10T11:27:59.860Z,54.10
2023-04-10T11:31:06.059Z,53.83
2023-04-10T11:34:21.624Z,53.74
2023-04-10T11:37:30.489Z,53.26
2023-04-10T11:40:36.150Z,53.06
2023-04-10T11:43:42.008Z,52.97
2023-04-10T11:46:57.922Z,52.74
2023-04-10T11:50:08.028Z,52.50
2023-04-10T11:53:14.943Z,52.05
2023-04-10T11:56:19.781Z,51.51
2023-04-10T11:59:26.214Z,51.14
2023-04-10T12:02:33.072Z,50.73
2023-04-10T12:05:40.280Z,50.56
2023-04-10T12:08:49.793Z,50.54
2023-04-10T12:12:06.958Z,50.33
2023-04-10T12:15:14.055Z,49.77
2023-04-10T12:18:20.618Z,49.29
2023-04-10T12:21:28.452Z,49.08
2023-04-10T12:25:06.224Z,48.99
2023-04-10T12:28:12.576Z,48.80
2023-04-10T12:31:18.716Z,48.70
2023-04-10T12:34:24.266Z,48.51
2023-04-10T12:37:30.109Z,48.31
2023-04-10T12:40:35.239Z,48.10
2023-04-10T12:43:49.358Z,47.83
2023-04-10T12:46:38.835Z,47.42
2023-04-10T12:49:32.617Z,47.32
2023-04-10T12:52:40.072Z,46.90
2023-04-10T12:55:44.967Z,46.63
2023-04-10T12:58:51.212Z,46.24
2023-04-10T13:01:57.960Z,46.10
2023-04-10T13:05:06.904Z,45.82
2023-04-10T13:08:14.977Z,45.80
2023-04-10T13:11:21.099Z,45.70
2023-04-10T13:14:27.875Z,45.53
2023-04-10T13:17:36.128Z,45.20
2023-04-10T13:20:43.383Z,44.94
2023-04-10T13:23:50.866Z,44.86
2023-04-10T13:26:56.610Z,44.81
2023-04-10T13:30:03.593Z,44.57
2023-04-10T13:33:10.405Z,44.24
2023-04-10T13:36:16.217Z,44.14
2023-04-10T13:39:24.930Z,44.15
2023-04-10T13:42:31.555Z,44.00
2023-04-10T13:45:36.948Z,43.64
2023-04-10T13:48:44.869Z,43.25
2023-04-10T13:51:51.215Z,42.84
2023-04-10T13:54:59.816Z,42.88
2023-04-10T13:58:05.943Z,42.80
2023-04-10T14:01:12.976Z,42.67
2023-04-10T14:04:19.290Z,42.59
2023-04-10T14:07:25.884Z,42.35
2023-04-10T14:10:31.972Z,42.21
2023-04-10T14:13:37.866Z,42.23
2023-04-10T14:16:43.820Z,42.23
2023-04-10T14:19:51.005Z,42.10
2023-04-10T14:22:57.284Z,41.84
2023-04-10T14:26:04.455Z,41.62
2023-04-10T14:29:09.675Z,41.37
2023-04-10T14:32:15.739Z,41.14
2023-04-10T14:35:24.926Z,40.98
2023-04-10T14:38:30.412Z,40.59
2023-04-10T14:41:36.049Z,40.24
2023-04-10T14:44:42.850Z,39.90
2023-04-10T14:47:48.583Z,39.86
2023-04-10T14:50:56.538Z,39.89
2023-04-10T14:54:02.869Z,39.90
2023-04-10T14:57:08.566Z,39.90
2023-04-10T15:00:16.136Z,39.65
2023-04-10T15:03:24.535Z,39.29
2023-04-10T15:06:30.426Z,39.00
2023-04-10T15:09:37.224Z,39.08
2023-04-10T15:12:43.996Z,38.97
2023-04-10T15:15:49.266Z,38.84
2023-04-10T15:18:57.957Z,38.83
2023-04-10T15:22:04.426Z,38.80
2023-04-10T15:25:10.481Z,38.55
2023-04-10T15:28:17.014Z,38.48
2023-04-10T15:31:24.468Z,38.37
2023-04-10T15:34:31.417Z,38.20
2023-04-10T15:37:37.191Z,38.08
2023-04-10T15:40:45.680Z,37.91
2023-04-10T15:43:54.070Z,37.87
2023-04-10T15:47:00.293Z,37.83
2023-04-10T15:50:07.279Z,37.71
2023-04-10T15:53:14.654Z,37.70
2023-04-10T15:56:22.692Z,37.82
2023-04-10T15:59:28.868Z,37.73
2023-04-10T16:02:34.216Z,37.58
2023-04-10T16:05:41.578Z,37.62
2023-04-10T16:08:49.603Z,37.64
2023-04-10T16:11:55.646Z,37.75
2023-04-10T16:15:03.916Z,37.80
2023-04-10T16:18:10.285Z,37.89
2023-04-10T16:21:17.642Z,37.98
2023-04-10T16:24:23.503Z,38.00
2023-04-10T16:27:30.077Z,38.02
2023-04-10T16:30:35.405Z,38.07
2023-04-10T16:33:43.404Z,38.17
2023-04-10T16:36:48.910Z,38.22
2023-04-10T16:39:54.501Z,38.33
2023-04-10T16:43:00.031Z,38.42
2023-04-10T16:46:12.254Z,38.44
2023-04-10T16:49:18.112Z,38.58
2023-04-10T16:52:24.592Z,38.66
2023-04-10T16:55:31.278Z,38.75
2023-04-10T16:58:36.323Z,38.82
2023-04-10T17:01:44.436Z,38.87
2023-04-10T17:04:51.253Z,38.95
2023-04-10T17:07:57.183Z,39.05
2023-04-10T17:11:02.822Z,39.17
2023-04-10T17:14:10.339Z,39.23
2023-04-10T17:17:16.742Z,39.41
2023-04-10T17:20:23.689Z,39.47
2023-04-10T17:23:29.390Z,39.63
2023-04-10T17:26:38.210Z,39.75
2023-04-10T17:29:45.588Z,39.91
2023-04-10T17:32:52.919Z,39.99
2023-04-10T17:35:58.916Z,40.12
2023-04-10T17:39:05.360Z,40.22
2023-04-10T17:42:10.349Z,40.35
2023-04-10T17:45:16.211Z,40.48
2023-04-10T17:48:22.847Z,40.58
2023-04-10T17:51:30.824Z,40.69
2023-04-10T17:54:37.259Z,40.78
2023-04-10T17:57:44.698Z,40.91
2023-04-10T18:00:55.180Z,41.03
2023-04-10T18:04:01.327Z,41.14
2023-04-10T18:07:08.473Z,41.24
2023-04-10T18:10:15.653Z,41.37
2023-04-10T18:13:15.562Z,41.47
2023-04-10T18:16:28.059Z,41.60
2023-04-10T18:19:37.685Z,41.74
2023-04-10T18:22:45.693Z,41.81
2023-04-10T18:25:51.731Z,41.96
2023-04-10T18:28:57.127Z,42.00
2023-04-10T18:32:03.912Z,42.04
2023-04-10T18:35:11.051Z,42.18
2023-04-10T18:38:18.137Z,42.34
2023-04-10T18:41:23.937Z,42.45
2023-04-10T18:44:33.449Z,42.58
2023-04-10T18:47:40.500Z,42.67
2023-04-10T18:50:51.843Z,42.80
2023-04-10T18:53:57.941Z,42.94
2023-04-10T18:57:07.114Z,43.05
2023-04-10T19:00:15.173Z,43.20
2023-04-10T19:03:23.264Z,43.21
2023-04-10T19:06:34.343Z,43.32
2023-04-10T19:09:42.379Z,43.48
2023-04-10T19:12:50.262Z,43.60
2023-04-10T19:15:57.856Z,43.63
2023-04-10T19:19:04.312Z,43.75
2023-04-10T19:22:10.445Z,43.79
2023-04-10T19:25:16.112Z,43.84
2023-04-10T19:28:22.425Z,43.95
2023-04-10T19:31:28.534Z,44.03
2023-04-10T19:34:34.540Z,44.17
2023-04-10T19:37:40.639Z,44.32
2023-04-10T19:40:47.083Z,44.34
2023-04-10T19:43:47.168Z,44.43
2023-04-10T19:46:53.999Z,44.52
2023-04-10T19:50:01.534Z,44.62
2023-04-10T19:53:08.571Z,44.78
2023-04-10T19:56:15.091Z,44.90
2023-04-10T19:59:21.655Z,44.99
2023-04-10T20:02:31.423Z,45.05
2023-04-10T20:05:37.236Z,45.09
2023-04-10T20:08:44.381Z,45.25
2023-04-10T20:11:50.612Z,45.38
2023-04-10T20:14:57.375Z,45.44
2023-04-10T20:18:05.139Z,45.49
2023-04-10T20:21:12.595Z,45.58
2023-04-10T20:24:19.222Z,45.68
2023-04-10T20:27:23.948Z,45.78
2023-04-10T20:30:30.682Z,45.84
2023-04-10T20:33:37.636Z,45.91
2023-04-10T20:36:43.774Z,45.94
2023-04-10T20:39:49.568Z,46.07
2023-04-10T20:42:59.120Z,46.13
2023-04-10T20:46:06.046Z,46.19
2023-04-10T20:49:12.161Z,46.28
2023-04-10T20:52:18.732Z,46.42
2023-04-10T20:55:26.507Z,46.52
2023-04-10T20:58:33.434Z,46.60
2023-04-10T21:01:40.076Z,46.69
2023-04-10T21:04:47.702Z,46.74
2023-04-10T21:07:54.636Z,46.84
2023-04-10T21:11:00.997Z,46.93
2023-04-10T21:14:07.071Z,47.03
2023-04-10T21:17:12.312Z,47.08
2023-04-10T21:20:17.338Z,47.20
2023-04-10T21:23:24.574Z,47.28
2023-04-10T21:26:30.434Z,47.32
2023-04-10T21:29:37.530Z,47.42
2023-04-10T21:32:43.507Z,47.51
2023-04-10T21:35:48.731Z,47.59
2023-04-10T21:38:55.972Z,47.69
2023-04-10T21:42:03.165Z,47.76
2023-04-10T21:45:10.227Z,47.81
2023-04-10T21:48:16.579Z,47.89
2023-04-10T21:51:16.940Z,47.99
2023-04-10T21:54:03.562Z,48.07
2023-04-10T21:56:56.062Z,48.13
2023-04-10T21:59:42.272Z,48.15
2023-04-10T22:02:35.128Z,48.24
2023-04-10T22:05:41.512Z,48.35
2023-04-10T22:08:49.881Z,48.46
2023-04-10T22:11:55.801Z,48.53
2023-04-10T22:15:02.190Z,48.60
2023-04-10T22:18:12.394Z,48.68
2023-04-10T22:21:20.019Z,48.75
2023-04-10T22:24:26.468Z,48.79
2023-04-10T22:27:32.322Z,48.84
2023-04-10T22:30:40.820Z,48.89
2023-04-10T22:33:49.615Z,48.97
2023-04-10T22:36:54.464Z,49.03
2023-04-10T22:40:02.643Z,49.08
2023-04-10T22:43:09.048Z,49.17
2023-04-10T22:46:14.490Z,49.23
2023-04-10T22:49:23.300Z,49.24
2023-04-10T22:52:29.510Z,49.29
2023-04-10T22:55:35.669Z,49.41
2023-04-10T22:58:41.709Z,49.44
2023-04-10T23:01:49.646Z,49.45
2023-04-10T23:04:55.557Z,49.57
2023-04-10T23:08:01.162Z,49.62
2023-04-10T23:11:10.134Z,49.66
2023-04-10T23:14:16.507Z,49.72
2023-04-10T23:17:23.293Z,49.76
2023-04-10T23:20:28.591Z,49.84
2023-04-10T23:23:34.644Z,49.85
2023-04-10T23:26:40.134Z,49.87
2023-04-10T23:29:46.399Z,49.96
2023-04-10T23:32:52.838Z,50.01
2023-04-10T23:35:59.579Z,50.07
2023-04-10T23:39:05.406Z,50.08
2023-04-10T23:42:11.726Z,50.12
2023-04-10T23:45:17.535Z,50.15
2023-04-10T23:48:24.313Z,50.21
2023-04-10T23:51:29.986Z,50.29
2023-04-10T23:54:35.436Z,50.39
2023-04-10T23:57:40.726Z,50.42
